Tiempo atmosférico en la estación meteorológica de Fuencaliente, Ciudad Real (640 m.)



Fecha
DESCASC
Temp. máxima en grados centígrados (hora)
DESCASC
Temp. mínima en grados centígrados (hora)
DESCASC
Temp. media en grados centígrados
DESCASC
Racha de viento máxima en m/sg (hora)
DESCASC
Velocidad máxima media en intervalos de 10 minutos(hora)
DESCASC
Precipitaciones diarias en mm
DESCASC
Precipitaciones de 00:00 a 06:00 en mm
DESCASC
Precipitaciones de 06:00 a 12:00 en mm
DESCASC
Precipitaciones de 12:00 a 18:00 en mm
DESCASC
Precipitaciones de 18:00 a 24:00 en mm
DESCASC
29-10-2020 24.7 (15:40) 9.2 (03:40) 17 5.83 (06:10) 3.06 (05:50) 0 0 0 0 0
28-10-2020 21.1 (16:10) 6.4 (01:30) 13.8 6.67 (14:40) 3.33 (14:40) 0 0 0 0 0
27-10-2020 16.4 (15:50) 2.7 (00:00) 9.5 6.11 (15:10) 3.61 (15:10) 0 0 0 0 0
26-10-2020 14.5 (14:40) 5.1 (00:00) 9.8 8.33 (00:20) 3.61 (13:50) 0.8 0.6 0 0.2 0
25-10-2020 14.6 (12:50) 8.7 (00:00) 11.7 11.94 (22:30) 6.11 (15:40) 7.6 0 0 0 7.6
24-10-2020 19.3 (16:40) 5.8 (00:00) 12.5 6.11 (16:20) 3.33 (14:30) 0.2 0 0.2 0 0
23-10-2020 16.5 (16:10) 8 (00:00) 12.3 9.17 (00:30) 4.17 (00:20) 0 0 0 0 0
22-10-2020 13.7 (03:40) 12.4 (00:00) 13 10 (23:10) 5 (23:00) 18.8 8.2 0.6 7.2 2.8
21-10-2020 15 (00:00) 13.1 (00:00) 14.1 13.89 (01:40) 7.5 (01:40) 11 5 1.8 4 0.2
20-10-2020 25.8 (16:30) 15 (00:00) 20.4 15.56 (17:40) 7.78 (17:40) 6.2 0 0 0 6.2
19-10-2020 27.5 (15:40) 7.8 (00:00) 17.7 7.5 (16:40) 3.89 (16:40) 0 0 0 0 0
18-10-2020 24.7 (17:20) 5.5 (00:00) 15.1 6.39 (12:20) 3.33 (12:20) 0 0 0 0 0
17-10-2020 22.5 (17:30) 3.5 (00:00) 13 6.11 (13:50) 3.33 (13:50) 0 0 0 0 0
16-10-2020 20.9 (16:30) 7.3 (00:00) 14.1 7.5 (01:30) 3.61 (02:50) 0 0 0 0 0
15-10-2020 21.1 (16:20) 4.9 (00:00) 13 7.22 (16:10) 4.44 (16:10) 0 0 0 0 0
14-10-2020 19.4 (17:20) 6.8 (00:00) 13.1 10.83 (15:20) 3.06 (15:20) 0 0 0 0 0
13-10-2020 25.1 (15:50) 5.8 (00:00) 15.5 7.22 (15:50) 3.61 (15:40) 0 0 0 0 0
12-10-2020 19.6 (17:30) 8.3 (00:00) 14 11.39 (07:20) 5.28 (06:40) 0 0 0 0 0
11-10-2020 22.8 (16:00) 13.6 (00:00) 18.2 10 (12:10) 4.72 (12:40) 0 0 0 0 0
10-10-2020 29.8 (16:30) 11.5 (00:00) 20.6 5.56 (16:10) 2.5 (16:10) 0 0 0 0 0
09-10-2020 29.8 (16:30) 10.4 (00:00) 20.1 4.72 (16:30) 2.22 (15:40) 0 0 0 0 0
08-10-2020 29.2 (15:40) 10.9 (00:00) 20.1 6.11 (15:40) 2.78 (15:30) 0 0 0 0 0
07-10-2020 29.1 (17:20) 11.5 (00:00) 20.3 4.72 (15:20) 2.5 (17:20) 0 0 0 0 0
06-10-2020 26.1 (17:00) 7.8 (00:00) 17 5 (16:30) 2.78 (18:10) 0 0 0 0 0
05-10-2020 20.1 (17:30) 5.3 (00:00) 12.7 6.39 (17:00) 3.33 (17:00) 0 0 0 0 0
04-10-2020 18.1 (16:50) 4.3 (00:00) 11.2 8.89 (14:40) 4.17 (16:40) 0 0 0 0 0
03-10-2020 17.2 (16:20) 5.5 (00:00) 11.4 9.17 (16:50) 5 (13:50) 0 0 0 0 0
02-10-2020 16 (00:00) 7.1 (00:00) 11.5 13.89 (13:40) 5.28 (16:00) 26.4 0 3.2 18.4 4.8
01-10-2020 24.9 (16:50) 8.8 (00:00) 16.8 10.83 (17:30) 4.72 (18:00) 0 0 0 0 0

Gráficas

Temp. máximas Temp. mínimas Temp. medias Precipitaciones Rachas de viento máximas Velocidades máximas media en intervalos de 10 minutos

Datos horarios

Fecha y hora oficial Temperatura (ºC) Velocidad del viento (km/h) Dirección del viento Racha (km/h) Dirección de racha Precipitación (mm) Presión (hPa) Tendencia (hPa) Humedad (%)
2020-10-30 23:00:00 11.6 0 Calma 5 Noroeste 0 -- -- 80
2020-10-30 22:00:00 12.3 0 Calma 5 Nordeste 0 -- -- 77
2020-10-30 21:00:00 12.8 0 Calma 7 Nordeste 0 -- -- 77
2020-10-30 20:00:00 13.4 0 Calma 5 Nordeste 0 -- -- 73
2020-10-30 19:00:00 15.6 0 Calma 5 Norte 0 -- -- 66
2020-10-30 18:00:00 20.7 0 Calma 7 Sudoeste 0 -- -- 52
2020-10-30 17:00:00 26 4 Sudoeste 11 Sudoeste 0 -- -- 36
2020-10-30 16:00:00 26.3 7 Sudoeste 14 Sudoeste 0 -- -- 33
2020-10-30 15:00:00 25.8 5 Sudeste 20 Sudoeste 0 -- -- 34
2020-10-30 14:00:00 25.5 5 Sur 13 Sur 0 -- -- 40
2020-10-30 13:00:00 24.5 6 Sur 14 Sur 0 -- -- 42
2020-10-30 12:00:00 23 6 Sudeste 11 Sur 0 -- -- 48
2020-10-30 11:00:00 22 4 Sur 7 Sur 0 -- -- 52
2020-10-30 10:00:00 17 0 Calma 2 Este 0 -- -- 75
2020-10-30 09:00:00 11.7 0 Calma 3 Este 0 -- -- 91
2020-10-30 08:00:00 9.3 0 Calma 4 Este 0 -- -- 91
2020-10-30 07:00:00 9.3 0 Calma 6 Norte 0 -- -- 91
2020-10-30 06:00:00 9.4 3 Este 7 Este 0 -- -- 91
2020-10-30 05:00:00 9.5 2 Este 9 Norte 0 -- -- 88
2020-10-30 04:00:00 9.9 2 Sudeste 11 Nordeste 0 -- -- 88
2020-10-30 03:00:00 10.8 0 Calma 12 Noroeste 0 -- -- 84
2020-10-30 02:00:00 11.2 2 Sudeste 13 Norte 0 -- -- 83
2020-10-30 01:00:00 13.8 5 Norte 16 Noroeste 0 -- -- 75
2020-10-30 00:00:00 14.6 9 Norte 18 Noroeste 0 -- -- 73
2020-10-29 23:00:00 14.8 9 Norte 17 Norte 0 -- -- 74
2020-10-29 22:00:00 13.3 3 Noroeste 10 Norte 0 -- -- 78
2020-10-29 21:00:00 14.9 3 Norte 9 Norte 0 -- -- 73
2020-10-29 20:00:00 15.8 5 Norte 13 Noroeste 0 -- -- 69
2020-10-29 19:00:00 15.3 2 Sur 9 Noroeste 0 -- -- 67
2020-10-29 18:00:00 19.6 0 Calma 9 Sur 0 -- -- 53
2020-10-29 17:00:00 23.7 5 Sudoeste 15 Sur 0 -- -- 39
2020-10-29 16:00:00 24.4 7 Sur 17 Sudoeste 0 -- -- 39
2020-10-29 15:00:00 24.5 9 Sudoeste 17 Sudoeste 0 -- -- 37
2020-10-29 14:00:00 24.1 9 Sudoeste 16 Sudeste 0 -- -- 42
2020-10-29 13:00:00 23.1 5 Sudeste 13 Sudeste 0 -- -- 52
2020-10-29 12:00:00 22 3 Sur 9 Sudoeste 0 -- -- 57
2020-10-29 11:00:00 19.3 4 Noroeste 12 Noroeste 0 -- -- 64
2020-10-29 10:00:00 16.7 4 Noroeste 13 Norte 0 -- -- 77
2020-10-29 09:00:00 12.8 3 Nordeste 16 Norte 0 -- -- 87
2020-10-29 08:00:00 9.8 0 Calma 15 Norte 0 -- -- 90
2020-10-29 07:00:00 11.6 9 Norte 21 Noroeste 0 -- -- 88
2020-10-29 06:00:00 11.7 10 Norte 18 Noroeste 0 -- -- 90
2020-10-29 05:00:00 11.6 5 Norte 14 Noroeste 0 -- -- 91
2020-10-29 04:00:00 10.1 5 Nordeste 14 Norte 0 -- -- 95
2020-10-29 03:00:00 9.4 0 Calma 7 Norte 0 -- -- 92
2020-10-29 02:00:00 10.6 0 Calma 13 Norte 0 -- -- 89
2020-10-29 01:00:00 12.4 5 Noroeste 13 Noroeste 0 -- -- 87
2020-10-29 00:00:00 12.5 5 Norte 11 Nordeste 0 -- -- 87
2020-10-28 23:00:00 12.6 6 Norte 12 Norte 0 -- -- 87
2020-10-28 22:00:00 13 4 Norte 13 Norte 0 -- -- 86
2020-10-28 21:00:00 13.1 5 Nordeste 10 Norte 0 -- -- 84
2020-10-28 20:00:00 14.4 6 Norte 12 Nordeste 0 -- -- 79
2020-10-28 19:00:00 15.1 2 Norte 13 Norte 0 -- -- 75
2020-10-28 18:00:00 17.8 3 Nordeste 13 Noroeste 0 -- -- 66
2020-10-28 17:00:00 20.8 6 Oeste 21 Oeste 0 -- -- 56
2020-10-28 16:00:00 21 9 Oeste 21 Noroeste 0 -- -- 55
2020-10-28 15:00:00 20.7 10 Oeste 24 Oeste 0 -- -- 56
2020-10-28 14:00:00 20.7 11 Oeste 18 Oeste 0 -- -- 57
2020-10-28 13:00:00 18.9 4 Sur 10 Sur 0 -- -- 59
2020-10-28 12:00:00 16.8 4 Sudoeste 10 Sudeste 0 -- -- 63
2020-10-28 11:00:00 15.3 8 Sudeste 13 Sudeste 0 -- -- 66
2020-10-28 10:00:00 14 4 Noroeste 12 Noroeste 0 -- -- 73
2020-10-28 09:00:00 11.4 4 Noroeste 12 Noroeste 0 -- -- 83
2020-10-28 08:00:00 8.2 5 Nordeste 12 Norte 0 -- -- 90
2020-10-28 07:00:00 8.4 3 Norte 9 Norte 0 -- -- 90
2020-10-28 06:00:00 7.5 3 Norte 9 Noroeste 0 -- -- 91
2020-10-28 05:00:00 7.6 2 Noroeste 8 Noroeste 0 -- -- 88
2020-10-28 04:00:00 8.5 4 Norte 9 Norte 0 -- -- 85
2020-10-28 03:00:00 8.3 4 Norte 9 Noroeste 0 -- -- 87
2020-10-28 02:00:00 6.5 3 Norte 8 Noroeste 0 -- -- 91
2020-10-28 01:00:00 6.9 0 Calma 10 Norte 0 -- -- 88
2020-10-28 00:00:00 6.9 3 Norte 9 Norte 0 -- -- 89
2020-10-27 23:00:00 6.5 0 Calma 6 Norte 0 -- -- 87
2020-10-27 22:00:00 8.1 4 Norte 8 Norte 0 -- -- 81
2020-10-27 21:00:00 8.4 3 Norte 5 Nordeste 0 -- -- 83
2020-10-27 20:00:00 9.2 3 Nordeste 9 Nordeste 0 -- -- 78
2020-10-27 19:00:00 10.5 4 Nordeste 7 Nordeste 0 -- -- 70
2020-10-27 18:00:00 13.1 3 Nordeste 12 Sudoeste 0 -- -- 58
2020-10-27 17:00:00 16.3 7 Sudoeste 19 Sudoeste 0 -- -- 44
2020-10-27 16:00:00 16.3 6 Noroeste 22 Sudoeste 0 -- -- 44
2020-10-27 15:00:00 16.3 12 Sudoeste 20 Sudoeste 0 -- -- 44
2020-10-27 14:00:00 15.3 10 Sudoeste 19 Sudoeste 0 -- -- 48
2020-10-27 13:00:00 14.1 9 Sudoeste 18 Sudoeste 0 -- -- 58
2020-10-27 12:00:00 12.9 3 Sudeste 12 Sudeste 0 -- -- 63
2020-10-27 11:00:00 11.8 6 Sur 10 Sur 0 -- -- 69
2020-10-27 10:00:00 10.7 0 Calma 3 Sur 0 -- -- 73
2020-10-27 09:00:00 6.3 0 Calma 3 Nordeste 0 -- -- 97
2020-10-27 08:00:00 2.8 0 Calma 2 Nordeste 0 -- -- 95
2020-10-27 07:00:00 3 0 Calma 4 Nordeste 0 -- -- 95
2020-10-27 06:00:00 2.8 0 Calma 2 Oeste 0 -- -- 94
2020-10-27 05:00:00 2.8 0 Calma 3 Sudoeste 0 -- -- 94
2020-10-27 04:00:00 3.2 0 Calma 3 Sudoeste 0 -- -- 93
2020-10-27 03:00:00 3.7 0 Calma 3 Nordeste 0 -- -- 92
2020-10-27 02:00:00 4.3 0 Calma 8 Norte 0 -- -- 92
2020-10-27 01:00:00 4.1 0 Calma 6 Sudoeste 0 -- -- 90
2020-10-27 00:00:00 5.1 3 Noroeste 8 Noroeste 0 -- -- 87
2020-10-26 23:00:00 5.8 0 Calma 9 Nordeste 0 -- -- 87
2020-10-26 22:00:00 6.4 6 Nordeste 10 Nordeste 0 -- -- 83
2020-10-26 21:00:00 5.8 0 Calma 9 Nordeste 0 -- -- 87
2020-10-26 20:00:00 5.9 5 Nordeste 8 Nordeste 0 -- -- 86
2020-10-26 19:00:00 7.1 0 Calma 6 Sudoeste 0 -- -- 80
2020-10-26 18:00:00 10.4 3 Sur 16 Noroeste 0 -- -- 62
2020-10-26 17:00:00 12.5 5 Oeste 18 Oeste 0 -- -- 55
2020-10-26 16:00:00 13.8 7 Oeste 23 Oeste 0 -- -- 54
2020-10-26 15:00:00 14.2 9 Oeste 24 Oeste 0 -- -- 54
2020-10-26 14:00:00 13.9 9 Oeste 22 Sudoeste 0 -- -- 55
2020-10-26 13:00:00 13.3 7 Oeste 22 Oeste 0.2 -- -- 59
2020-10-26 12:00:00 12 10 Oeste 22 Noroeste 0 -- -- 60
2020-10-26 11:00:00 11.3 9 Noroeste 20 Oeste 0 -- -- 67
2020-10-26 10:00:00 10.4 5 Noroeste 18 Sudoeste 0 -- -- 73
2020-10-26 09:00:00 8.9 3 Oeste 17 Noroeste 0 -- -- 80
2020-10-26 08:00:00 7.5 3 Nordeste 15 Noroeste 0 -- -- 83
2020-10-26 07:00:00 7.1 3 Norte 18 Nordeste 0 -- -- 86
2020-10-26 06:00:00 7.1 5 Nordeste 14 Norte 0 -- -- 87
2020-10-26 05:00:00 8.5 5 Este 18 Oeste 0 -- -- 82
2020-10-26 04:00:00 9.2 4 Sudoeste 19 Oeste 0 -- -- 83
2020-10-26 03:00:00 9.5 5 Oeste 25 Sudoeste 0 -- -- 85
2020-10-26 02:00:00 10 8 Oeste 28 Noroeste 0 -- -- 84
2020-10-26 01:00:00 10.5 9 Oeste 30 Oeste 0.6 -- -- 89
2020-10-26 00:00:00 11.6 8 Oeste 30 Noroeste 1.8 -- -- 90
2020-10-25 23:00:00 12.2 5 Sudoeste 43 Sur 5.4 -- -- 90
2020-10-25 22:00:00 12.7 11 Sur 40 Oeste 0.4 -- -- 92
2020-10-25 21:00:00 12.9 12 Sudoeste 35 Sudoeste 0 -- -- 90
2020-10-25 20:00:00 13.3 9 Sur 24 Sur 0 -- -- 84
2020-10-25 19:00:00 13.1 7 Sur 27 Sudoeste 0 -- -- 81
2020-10-25 18:00:00 13.1 10 Sur 28 Sudoeste 0 -- -- 79
2020-10-25 17:00:00 13.2 14 Sudoeste 31 Sudoeste 0 -- -- 77
2020-10-25 16:00:00 13.7 14 Sudoeste 34 Sudoeste 0 -- -- 74
2020-10-25 15:00:00 13.2 12 Sudoeste 24 Sudoeste 0 -- -- 78
2020-10-25 14:00:00 13.5 9 Sur 32 Sudoeste 0 -- -- 74
2020-10-25 13:00:00 14.3 13 Sudoeste 29 Sudoeste 0 -- -- 69
2020-10-25 12:00:00 13.8 12 Sudoeste 25 Sudoeste 0 -- -- 72
2020-10-25 11:00:00 12.3 9 Sur 18 Sudoeste 0 -- -- 85
2020-10-25 10:00:00 10 4 Sur 10 Sudeste 0 -- -- 96
2020-10-25 09:00:00 9.3 3 Sur 8 Sur 0 -- -- 96
2020-10-25 08:00:00 8.8 4 Sudeste 13 Sudeste 0 -- -- 95
2020-10-25 07:00:00 9.9 3 Nordeste 8 Este 0 -- -- 95
2020-10-25 06:00:00 9.5 4 Sudeste 8 Este 0 -- -- 95
2020-10-25 05:00:00 9.9 4 Este 7 Este 0 -- -- 94
2020-10-25 04:00:00 10.4 2 Norte 8 Este 0 -- -- 95
2020-10-25 03:00:00 10.3 0 Calma 15 Oeste 0 -- -- 94
2020-10-25 02:00:00 10 2 Sudoeste 9 Oeste 0 -- -- 94
2020-10-25 01:00:00 10.4 3 Nordeste 6 Oeste 0 -- -- 94
2020-10-25 00:00:00 9.7 0 Calma 5 Nordeste 0 -- -- 94
2020-10-24 23:00:00 9.9 0 Calma 3 Nordeste 0 -- -- 91
2020-10-24 22:00:00 10.5 0 Calma 4 Nordeste 0 -- -- 89
2020-10-24 21:00:00 11.2 0 Calma 5 Nordeste 0 -- -- 88
2020-10-24 20:00:00 12.9 3 Nordeste 10 Sudeste 0 -- -- 81
2020-10-24 19:00:00 16.4 2 Sur 18 Sudoeste 0 -- -- 66
2020-10-24 18:00:00 18.7 8 Sudoeste 18 Sudoeste 0 -- -- 49
2020-10-24 17:00:00 19.1 10 Oeste 22 Sudoeste 0 -- -- 49
2020-10-24 16:00:00 19.1 11 Oeste 22 Oeste 0 -- -- 49
2020-10-24 15:00:00 18.2 9 Oeste 20 Sudoeste 0 -- -- 51
2020-10-24 14:00:00 17.6 8 Sur 20 Oeste 0 -- -- 57
2020-10-24 13:00:00 16.7 9 Sudoeste 16 Sur 0 -- -- 60
2020-10-24 12:00:00 15.6 5 Sur 10 Sudeste 0 -- -- 73
2020-10-24 11:00:00 13.5 3 Sur 5 Sur 0 -- -- 83
2020-10-24 10:00:00 8.9 0 Calma 4 Nordeste 0 -- -- 98
2020-10-24 09:00:00 5.9 0 Calma 4 Nordeste 0 -- -- 96
2020-10-24 08:00:00 5.9 0 Calma 3 Oeste 0.2 -- -- 96
2020-10-24 07:00:00 6.2 0 Calma 3 Este 0 -- -- 96
2020-10-24 06:00:00 6.1 0 Calma 4 Nordeste 0 -- -- 95
2020-10-24 05:00:00 6.6 0 Calma 3 Nordeste 0 -- -- 96
2020-10-24 04:00:00 6.6 0 Calma 4 Nordeste 0 -- -- 95
2020-10-24 03:00:00 7 0 Calma 4 Este 0 -- -- 95
2020-10-24 02:00:00 7.1 0 Calma 3 Este 0 -- -- 94
2020-10-24 01:00:00 7.5 0 Calma 3 Nordeste 0 -- -- 93
2020-10-24 00:00:00 8 0 Calma 2 Este 0 -- -- 93
2020-10-23 23:00:00 8.5 0 Calma 3 Norte 0 -- -- 91
2020-10-23 22:00:00 9.3 0 Calma 4 Nordeste 0 -- -- 90
2020-10-23 21:00:00 10.7 0 Calma 2 Nordeste 0 -- -- 87
2020-10-23 20:00:00 12.6 2 Nordeste 5 Nordeste 0 -- -- 81
2020-10-23 19:00:00 15 2 Noroeste 11 Noroeste 0 -- -- 69
2020-10-23 18:00:00 16 6 Oeste 13 Oeste 0 -- -- 63
2020-10-23 17:00:00 15.5 6 Sudoeste 20 Sur 0 -- -- 66
2020-10-23 16:00:00 16.3 9 Sudoeste 22 Sudoeste 0 -- -- 63
2020-10-23 15:00:00 14.9 4 Oeste 21 Sudoeste 0 -- -- 62
2020-10-23 14:00:00 14.9 5 Sudoeste 21 Oeste 0 -- -- 64
2020-10-23 13:00:00 13.7 5 Sudoeste 17 Sur 0 -- -- 77
2020-10-23 12:00:00 12.7 4 Sur 9 Sudoeste 0 -- -- 89
2020-10-23 11:00:00 11.5 5 Sudeste 10 Sur 0 -- -- 94
2020-10-23 10:00:00 10.6 4 Sur 8 Sur 0 -- -- 95
2020-10-23 09:00:00 10.2 0 Calma 5 Sudeste 0 -- -- 94
2020-10-23 08:00:00 10.6 0 Calma 6 Este 0 -- -- 93
2020-10-23 07:00:00 10.7 0 Calma 7 Este 0 -- -- 92
2020-10-23 06:00:00 10.9 0 Calma 12 Sur 0 -- -- 92
2020-10-23 05:00:00 11.3 5 Sudeste 18 Sur 0 -- -- 89
2020-10-23 04:00:00 11.2 5 Sur 15 Sur 0 -- -- 92
2020-10-23 03:00:00 11.8 6 Sur 23 Sur 0 -- -- 89
2020-10-23 02:00:00 12.4 9 Sur 33 Sur 0 -- -- 85
2020-10-23 01:00:00 12.7 11 Sur 33 Sudoeste 0 -- -- 89
2020-10-23 00:00:00 12.9 16 Sudoeste 36 Sur 0 -- -- 89
2020-10-22 23:00:00 13.2 18 Sudoeste 35 Sudoeste 0 -- -- 89
2020-10-22 22:00:00 13 6 Sudoeste 14 Oeste 0 -- -- 94
2020-10-22 21:00:00 13 3 Sur 8 Sudoeste 0 -- -- 95
2020-10-22 20:00:00 13 2 Sudoeste 11 Sudeste 0.8 -- -- 94
2020-10-22 19:00:00 13.3 4 Sudeste 16 Sudoeste 2 -- -- 94
2020-10-22 18:00:00 13.4 5 Sur 21 Sur 3.6 -- -- 94
2020-10-22 17:00:00 13.7 5 Sur 13 Sur 0 -- -- 92
2020-10-22 16:00:00 13.4 6 Sudeste 16 Sur 0 -- -- 92
2020-10-22 15:00:00 13.1 5 Sur 18 Sudoeste 0.2 -- -- 94
2020-10-22 14:00:00 13 9 Sudoeste 21 Sudoeste 1 -- -- 92
2020-10-22 13:00:00 12.8 5 Sur 13 Sur 2.4 -- -- 93
2020-10-22 12:00:00 13.1 5 Sur 12 Sur 0.2 -- -- 93
2020-10-22 11:00:00 13.1 2 Sudeste 10 Sudoeste 0 -- -- 91
2020-10-22 10:00:00 12.6 6 Sudoeste 15 Oeste 0.2 -- -- 91
2020-10-22 09:00:00 12.6 4 Sudeste 15 Sudeste 0.2 -- -- 91
2020-10-22 08:00:00 12.6 0 Calma 12 Oeste 0 -- -- 91
2020-10-22 07:00:00 12.7 2 Este 7 Este 0 -- -- 91
2020-10-22 06:00:00 12.5 0 Calma 6 Este 0 -- -- 93
2020-10-22 05:00:00 13.3 0 Calma 6 Sur 0 -- -- 92
2020-10-22 04:00:00 13.6 0 Calma 6 Oeste 0 -- -- 93
2020-10-22 03:00:00 13.6 0 Calma 12 Este 0.8 -- -- 94
2020-10-22 02:00:00 13.5 6 Sur 21 Sudoeste 7 -- -- 93
2020-10-22 01:00:00 13.5 4 Sur 8 Sudeste 0.4 -- -- 92
2020-10-22 00:00:00 13.2 0 Calma 4 Nordeste 0 -- -- 93
2020-10-21 23:00:00 13.1 0 Calma 4 Nordeste 0 -- -- 93
2020-10-21 22:00:00 13.7 0 Calma 3 Nordeste 0.2 -- -- 93
2020-10-21 21:00:00 14 0 Calma 11 Sur 0 -- -- 90
2020-10-21 20:00:00 14.4 3 Sudoeste 9 Sudeste 0 -- -- 90
2020-10-21 19:00:00 14.7 6 Sur 14 Sur 0 -- -- 90
2020-10-21 18:00:00 14.4 4 Sudeste 19 Sudeste 0 -- -- 91
2020-10-21 17:00:00 14.6 4 Sur 13 Sur 0 -- -- 91
2020-10-21 16:00:00 14.2 8 Sur 14 Sur 0 -- -- 91
2020-10-21 15:00:00 14.2 5 Sur 24 Sudoeste 0 -- -- 91
2020-10-21 14:00:00 13.8 17 Sudoeste 44 Sur 4 -- -- 88
2020-10-21 13:00:00 14.7 10 Sur 28 Sur 0 -- -- 89
2020-10-21 12:00:00 14.3 12 Sur 30 Sur 0.2 -- -- 90
2020-10-21 11:00:00 14.1 14 Sur 30 Sur 0.6 -- -- 92
2020-10-21 10:00:00 13.8 13 Sur 26 Sur 1 -- -- 93
2020-10-21 09:00:00 13.2 9 Sur 23 Sudeste 0 -- -- 93
2020-10-21 08:00:00 13.2 13 Sur 22 Sur 0 -- -- 92
2020-10-21 07:00:00 13.3 8 Sur 21 Sur 0 -- -- 91
2020-10-21 06:00:00 13.4 8 Sur 36 Sudoeste 0 -- -- 91
2020-10-21 05:00:00 13.5 11 Sur 23 Sur 0 -- -- 92
2020-10-21 04:00:00 13.6 11 Sur 26 Sudeste 0.6 -- -- 92
2020-10-21 03:00:00 13.9 11 Sur 29 Sudoeste 0 -- -- 91
2020-10-21 02:00:00 14.6 17 Sudoeste 50 Sudoeste 2.2 -- -- 86
2020-10-21 01:00:00 14.6 10 Sur 44 Sudoeste 2.2 -- -- 92
2020-10-21 00:00:00 15 23 Sudoeste 45 Sur 3.8 -- -- 84
2020-10-20 23:00:00 15.6 18 Sur 46 Sur 1.2 -- -- 79
2020-10-20 22:00:00 16.3 8 Sur 30 Sur 0.2 -- -- 72
2020-10-20 21:00:00 16.4 10 Sur 41 Sudeste 1 -- -- 72
2020-10-20 20:00:00 19.1 15 Sur 42 Sudeste 0 -- -- 54
2020-10-20 19:00:00 21.7 22 Sur 52 Sur 0 -- -- 39
2020-10-20 18:00:00 23.1 25 Sur 56 Sur 0 -- -- 34
2020-10-20 17:00:00 24.5 22 Sur 55 Sudeste 0 -- -- 29
2020-10-20 16:00:00 25.2 17 Sur 36 Sudeste 0 -- -- 30
2020-10-20 15:00:00 23.9 13 Sur 39 Sur 0 -- -- 32
2020-10-20 14:00:00 22.8 14 Sur 37 Sur 0 -- -- 33
2020-10-20 13:00:00 20.9 10 Sur 20 Sudoeste 0 -- -- 37
2020-10-20 12:00:00 19.5 9 Sudoeste 19 Sur 0 -- -- 39
2020-10-20 11:00:00 18.4 8 Sur 17 Sudeste 0 -- -- 42
2020-10-20 10:00:00 18 5 Sudeste 17 Sudeste 0 -- -- 43
2020-10-20 09:00:00 18.1 8 Sudeste 19 Sudoeste 0 -- -- 41
2020-10-20 08:00:00 18.2 10 Sur 22 Sudeste 0 -- -- 39
2020-10-20 07:00:00 17.7 7 Sudeste 18 Sudeste 0 -- -- 40
2020-10-20 06:00:00 17 7 Sur 20 Sur 0 -- -- 42
2020-10-20 05:00:00 16.6 6 Sur 14 Sur 0 -- -- 43
2020-10-20 04:00:00 16.3 0 Calma 9 Sudeste 0 -- -- 43
2020-10-20 03:00:00 16.6 4 Sur 11 Sudeste 0 -- -- 43
2020-10-20 02:00:00 17 4 Este 9 Sudeste 0 -- -- 40
2020-10-20 01:00:00 17.6 3 Sudeste 10 Sudeste 0 -- -- 39
2020-10-20 00:00:00 18 3 Sudeste 12 Sur 0 -- -- 38
2020-10-19 23:00:00 18.5 4 Sur 12 Este 0 -- -- 35
2020-10-19 22:00:00 17.5 2 Este 10 Sudeste 0 -- -- 38
2020-10-19 21:00:00 19.5 4 Sudeste 20 Sudoeste 0 -- -- 32
2020-10-19 20:00:00 21.5 5 Sur 21 Sur 0 -- -- 28
2020-10-19 19:00:00 23.1 8 Sur 21 Sudeste 0 -- -- 26
2020-10-19 18:00:00 24.6 10 Sudeste 25 Sur 0 -- -- 24
2020-10-19 17:00:00 25.7 11 Sur 27 Sur 0 -- -- 22
2020-10-19 16:00:00 27.3 12 Sur 23 Sur 0 -- -- 21
2020-10-19 15:00:00 26.9 12 Sur 23 Sur 0 -- -- 22
2020-10-19 14:00:00 25.6 8 Sur 26 Sudoeste 0 -- -- 25
2020-10-19 13:00:00 23.7 11 Sur 23 Sur 0 -- -- 27
2020-10-19 12:00:00 22.1 10 Sur 20 Sudoeste 0 -- -- 29
2020-10-19 11:00:00 17.9 3 Sudoeste 6 Sudoeste 0 -- -- 42
2020-10-19 10:00:00 11.4 0 Calma 3 Sudoeste 0 -- -- 63
2020-10-19 09:00:00 7.9 0 Calma 3 Este 0 -- -- 64
2020-10-19 08:00:00 8 0 Calma 3 Nordeste 0 -- -- 65
2020-10-19 07:00:00 8.1 0 Calma 4 Norte 0 -- -- 65
2020-10-19 06:00:00 8.7 0 Calma 4 Nordeste 0 -- -- 64
2020-10-19 05:00:00 8.3 0 Calma 4 Nordeste 0 -- -- 62
2020-10-19 04:00:00 8 2 Norte 4 Nordeste 0 -- -- 65
2020-10-19 03:00:00 8.2 0 Calma 3 Nordeste 0 -- -- 63
2020-10-19 02:00:00 8.2 0 Calma 3 Nordeste 0 -- -- 63
2020-10-19 01:00:00 8.8 0 Calma 4 Este 0 -- -- 61
2020-10-19 00:00:00 9.2 0 Calma 3 Este 0 -- -- 57
2020-10-18 23:00:00 9.7 0 Calma 3 Este 0 -- -- 53
2020-10-18 22:00:00 10.6 0 Calma 4 Oeste 0 -- -- 49
2020-10-18 21:00:00 13.4 2 Nordeste 12 Nordeste 0 -- -- 42
2020-10-18 20:00:00 16.6 2 Nordeste 7 Nordeste 0 -- -- 34
2020-10-18 19:00:00 22.4 2 Oeste 11 Sur 0 -- -- 22
2020-10-18 18:00:00 24.4 6 Sur 17 Sudoeste 0 -- -- 18
2020-10-18 17:00:00 24.3 4 Sudoeste 14 Sur 0 -- -- 20
2020-10-18 16:00:00 24.3 6 Sur 17 Sur 0 -- -- 21
2020-10-18 15:00:00 23.4 6 Sudeste 17 Sur 0 -- -- 24
2020-10-18 14:00:00 22.9 8 Sur 19 Sudoeste 0 -- -- 25
2020-10-18 13:00:00 22.1 10 Sur 23 Sur 0 -- -- 26
2020-10-18 12:00:00 20.5 9 Sur 17 Sur 0 -- -- 33
2020-10-18 11:00:00 18.3 3 Sur 5 Sur 0 -- -- 40
2020-10-18 10:00:00 10.4 0 Calma 5 Nordeste 0 -- -- 67
2020-10-18 09:00:00 6 0 Calma 5 Nordeste 0 -- -- 71
2020-10-18 08:00:00 5.8 0 Calma 4 Nordeste 0 -- -- 67
2020-10-18 07:00:00 5.8 0 Calma 3 Este 0 -- -- 66
2020-10-18 06:00:00 6.4 0 Calma 4 Nordeste 0 -- -- 63
2020-10-18 05:00:00 7.1 0 Calma 5 Sudeste 0 -- -- 60
2020-10-18 04:00:00 6.8 0 Calma 7 Nordeste 0 -- -- 60
2020-10-18 03:00:00 7.4 0 Calma 5 Norte 0 -- -- 61
2020-10-18 02:00:00 7 0 Calma 4 Nordeste 0 -- -- 63
2020-10-18 01:00:00 7.2 0 Calma 4 Este 0 -- -- 64
2020-10-18 00:00:00 7.3 0 Calma 2 Norte 0 -- -- 64
2020-10-17 23:00:00 8.1 0 Calma 3 Nordeste 0 -- -- 61
2020-10-17 22:00:00 9.2 0 Calma 3 Nordeste 0 -- -- 55
2020-10-17 21:00:00 10.8 0 Calma 3 Noroeste 0 -- -- 50
2020-10-17 20:00:00 15.4 4 Noroeste 8 Noroeste 0 -- -- 39
2020-10-17 19:00:00 19.7 2 Oeste 10 Noroeste 0 -- -- 30
2020-10-17 18:00:00 22 3 Noroeste 15 Oeste 0 -- -- 25
2020-10-17 17:00:00 22.3 7 Oeste 20 Oeste 0 -- -- 25
2020-10-17 16:00:00 21.7 4 Noroeste 14 Sudoeste 0 -- -- 27
2020-10-17 15:00:00 21.1 6 Sur 21 Sudoeste 0 -- -- 28
2020-10-17 14:00:00 20.2 8 Sudoeste 22 Sudoeste 0 -- -- 34
2020-10-17 13:00:00 19.1 7 Sur 17 Sur 0 -- -- 36
2020-10-17 12:00:00 17.5 5 Sudeste 12 Sur 0 -- -- 38
2020-10-17 11:00:00 15.2 3 Sudeste 6 Sudeste 0 -- -- 43
2020-10-17 10:00:00 8.3 0 Calma 2 Nordeste 0 -- -- 70
2020-10-17 09:00:00 3.7 0 Calma 2 Nordeste 0 -- -- 78
2020-10-17 08:00:00 3.6 0 Calma 2 Nordeste 0 -- -- 75
2020-10-17 07:00:00 4 0 Calma 2 Nordeste 0 -- -- 73
2020-10-17 06:00:00 4.2 0 Calma 6 Oeste 0 -- -- 74
2020-10-17 05:00:00 4.3 0 Calma 3 Nordeste 0 -- -- 72
2020-10-17 04:00:00 5.2 0 Calma 4 Este 0 -- -- 70
2020-10-17 03:00:00 5.6 0 Calma 3 Este 0 -- -- 66
2020-10-17 02:00:00 6.1 0 Calma 3 Este 0 -- -- 66
2020-10-17 01:00:00 6.6 0 Calma 3 Nordeste 0 -- -- 63
2020-10-17 00:00:00 7.3 0 Calma 5 Este 0 -- -- 58
2020-10-16 23:00:00 8.1 0 Calma 3 Este 0 -- -- 57
2020-10-16 22:00:00 9.6 0 Calma 10 Norte 0 -- -- 49
2020-10-16 21:00:00 13.2 7 Norte 11 Norte 0 -- -- 39
2020-10-16 20:00:00 14.1 4 Norte 6 Norte 0 -- -- 37
2020-10-16 19:00:00 17.6 3 Oeste 17 Oeste 0 -- -- 31
2020-10-16 18:00:00 20.3 9 Oeste 21 Sudoeste 0 -- -- 26
2020-10-16 17:00:00 20.6 10 Sudoeste 18 Sudoeste 0 -- -- 27
2020-10-16 16:00:00 20.4 7 Sudoeste 20 Sudoeste 0 -- -- 28
2020-10-16 15:00:00 20.2 7 Sur 19 Sudoeste 0 -- -- 30
2020-10-16 14:00:00 18.9 7 Sur 19 Sur 0 -- -- 31
2020-10-16 13:00:00 18.6 7 Sudoeste 20 Sudoeste 0 -- -- 34
2020-10-16 12:00:00 17.4 5 Sur 9 Sur 0 -- -- 34
2020-10-16 11:00:00 16 2 Este 14 Noroeste 0 -- -- 37
2020-10-16 10:00:00 13.2 3 Norte 13 Norte 0 -- -- 44
2020-10-16 09:00:00 8.5 6 Norte 15 Norte 0 -- -- 55
2020-10-16 08:00:00 8.4 5 Noroeste 13 Norte 0 -- -- 56
2020-10-16 07:00:00 8.4 5 Norte 15 Norte 0 -- -- 56
2020-10-16 06:00:00 8.9 6 Norte 12 Norte 0 -- -- 54
2020-10-16 05:00:00 9.8 5 Noroeste 12 Oeste 0 -- -- 51
2020-10-16 04:00:00 10.4 4 Oeste 19 Nordeste 0 -- -- 49
2020-10-16 03:00:00 11.3 10 Nordeste 26 Nordeste 0 -- -- 46
2020-10-16 02:00:00 11.4 10 Nordeste 27 Nordeste 0 -- -- 46
2020-10-16 01:00:00 11.7 10 Nordeste 23 Nordeste 0 -- -- 44
2020-10-16 00:00:00 10.3 6 Nordeste 12 Nordeste 0 -- -- 50
2020-10-15 23:00:00 8.4 0 Calma 7 Norte 0 -- -- 57
2020-10-15 22:00:00 12.3 6 Noroeste 11 Noroeste 0 -- -- 43
2020-10-15 21:00:00 12.9 2 Norte 8 Norte 0 -- -- 45
2020-10-15 20:00:00 14.3 5 Nordeste 8 Norte 0 -- -- 39
2020-10-15 19:00:00 18.1 5 Oeste 16 Oeste 0 -- -- 32
2020-10-15 18:00:00 20.7 9 Sudoeste 21 Oeste 0 -- -- 28
2020-10-15 17:00:00 20.1 7 Sur 26 Sudoeste 0 -- -- 27
2020-10-15 16:00:00 20.9 8 Sudoeste 18 Sudoeste 0 -- -- 27
2020-10-15 15:00:00 20.3 9 Oeste 22 Sudoeste 0 -- -- 28
2020-10-15 14:00:00 18.9 8 Sudeste 22 Sur 0 -- -- 31
2020-10-15 13:00:00 18.2 8 Sur 15 Sudoeste 0 -- -- 32
2020-10-15 12:00:00 17.3 6 Sudeste 14 Sur 0 -- -- 33
2020-10-15 11:00:00 16.3 0 Calma 4 Sudeste 0 -- -- 38
2020-10-15 10:00:00 9.8 0 Calma 7 Nordeste 0 -- -- 68
2020-10-15 09:00:00 4.9 0 Calma 9 Este 0 -- -- 75
2020-10-15 08:00:00 5.3 0 Calma 4 Nordeste 0 -- -- 72
2020-10-15 07:00:00 5.2 0 Calma 4 Nordeste 0 -- -- 71
2020-10-15 06:00:00 5.9 0 Calma 4 Nordeste 0 -- -- 66
2020-10-15 05:00:00 5.9 0 Calma 4 Noroeste 0 -- -- 68
2020-10-15 04:00:00 7.6 2 Norte 8 Norte 0 -- -- 66
2020-10-15 03:00:00 10 4 Norte 10 Noroeste 0 -- -- 53
2020-10-15 02:00:00 8 2 Noroeste 6 Norte 0 -- -- 64
2020-10-15 01:00:00 10.2 2 Norte 10 Norte 0 -- -- 60
2020-10-15 00:00:00 11.4 3 Noroeste 12 Norte 0 -- -- 56
2020-10-14 23:00:00 12.1 6 Nordeste 13 Nordeste 0 -- -- 56
2020-10-14 22:00:00 12.4 7 Nordeste 13 Nordeste 0 -- -- 57
2020-10-14 21:00:00 12.9 6 Nordeste 10 Nordeste 0 -- -- 56
2020-10-14 20:00:00 14 6 Nordeste 9 Nordeste 0 -- -- 51
2020-10-14 19:00:00 18 4 Oeste 20 Nordeste 0 -- -- 37
2020-10-14 18:00:00 19.3 8 Nordeste 19 Este 0 -- -- 37
2020-10-14 17:00:00 19.2 9 Nordeste 25 Norte 0 -- -- 37
2020-10-14 16:00:00 18.7 5 Este 39 Este 0 -- -- 39
2020-10-14 15:00:00 17.8 6 Norte 21 Noroeste 0 -- -- 45
2020-10-14 14:00:00 17.8 4 Este 19 Nordeste 0 -- -- 48
2020-10-14 13:00:00 16.3 8 Este 18 Este 0 -- -- 57
2020-10-14 12:00:00 16 8 Nordeste 17 Oeste 0 -- -- 57
2020-10-14 11:00:00 13 7 Oeste 23 Noroeste 0 -- -- 70
2020-10-14 10:00:00 11.6 5 Oeste 15 Noroeste 0 -- -- 79
2020-10-14 09:00:00 6.8 0 Calma 5 Nordeste 0 -- -- 92
2020-10-14 08:00:00 7.4 0 Calma 4 Nordeste 0 -- -- 89
2020-10-14 07:00:00 9.2 0 Calma 6 Nordeste 0 -- -- 86
2020-10-14 06:00:00 10 3 Nordeste 6 Este 0 -- -- 88
2020-10-14 05:00:00 10.6 0 Calma 7 Nordeste 0 -- -- 84
2020-10-14 04:00:00 11.3 0 Calma 9 Norte 0 -- -- 79
2020-10-14 03:00:00 11.9 3 Norte 8 Norte 0 -- -- 74
2020-10-14 02:00:00 12.4 0 Calma 6 Sudoeste 0 -- -- 65
2020-10-14 01:00:00 13.5 2 Norte 6 Nordeste 0 -- -- 59
2020-10-14 00:00:00 13.9 3 Norte 7 Nordeste 0 -- -- 56
2020-10-13 23:00:00 14.4 3 Nordeste 7 Norte 0 -- -- 53
2020-10-13 22:00:00 14 2 Norte 5 Norte 0 -- -- 53
2020-10-13 21:00:00 16.4 0 Calma 8 Norte 0 -- -- 47
2020-10-13 20:00:00 18.3 4 Norte 17 Oeste 0 -- -- 38
2020-10-13 19:00:00 22.2 3 Oeste 18 Oeste 0 -- -- 30
2020-10-13 18:00:00 24.5 8 Sudoeste 23 Oeste 0 -- -- 27
2020-10-13 17:00:00 24.6 10 Oeste 23 Sudoeste 0 -- -- 26
2020-10-13 16:00:00 24.9 9 Oeste 26 Oeste 0 -- -- 29
2020-10-13 15:00:00 24.6 10 Sudoeste 20 Sudoeste 0 -- -- 29
2020-10-13 14:00:00 22.9 6 Sudoeste 13 Sudeste 0 -- -- 27
2020-10-13 13:00:00 21.9 6 Sudeste 11 Sur 0 -- -- 28
2020-10-13 12:00:00 20.4 4 Sudeste 10 Sudeste 0 -- -- 31
2020-10-13 11:00:00 18.3 2 Sur 5 Sudeste 0 -- -- 36
2020-10-13 10:00:00 11.7 0 Calma 4 Este 0 -- -- 62
2020-10-13 09:00:00 7.1 0 Calma 4 Este 0 -- -- 66
2020-10-13 08:00:00 6.4 0 Calma 4 Este 0 -- -- 65
2020-10-13 07:00:00 6 0 Calma 7 Nordeste 0 -- -- 70
2020-10-13 06:00:00 5.9 0 Calma 5 Este 0 -- -- 69
2020-10-13 05:00:00 6.4 0 Calma 5 Nordeste 0 -- -- 66
2020-10-13 04:00:00 -- -- -- -- -- -- -- -- --
2020-10-13 03:00:00 7.9 2 Nordeste 11 Norte 0 -- -- 61
2020-10-13 02:00:00 8 2 Nordeste 8 Noroeste 0 -- -- 60
2020-10-13 01:00:00 -- -- -- -- -- -- -- -- --
2020-10-13 00:00:00 11.4 6 Nordeste 11 Noroeste 0 -- -- 47
2020-10-12 23:00:00 8.4 0 Calma 6 Este 0 -- -- 61
2020-10-12 22:00:00 9.8 2 Este 6 Este 0 -- -- 52
2020-10-12 21:00:00 12.8 0 Calma 12 Noroeste 0 -- -- 45
2020-10-12 20:00:00 15.1 3 Noroeste 8 Nordeste 0 -- -- 37
2020-10-12 19:00:00 17.9 6 Nordeste 17 Este 0 -- -- 31
2020-10-12 18:00:00 19.3 8 Nordeste 22 Este 0 -- -- 31
2020-10-12 17:00:00 19.1 10 Este 25 Nordeste 0 -- -- 31
2020-10-12 16:00:00 18.9 14 Este 27 Este 0 -- -- 32
2020-10-12 15:00:00 18.1 10 Nordeste 24 Este 0 -- -- 34
2020-10-12 14:00:00 17.4 10 Nordeste 28 Nordeste 0 -- -- 35
2020-10-12 13:00:00 15.5 14 Este 33 Nordeste 0 -- -- 39
2020-10-12 12:00:00 14.3 11 Este 28 Este 0 -- -- 44
2020-10-12 11:00:00 13.7 10 Este 32 Este 0 -- -- 45
2020-10-12 10:00:00 12.5 14 Nordeste 36 Este 0 -- -- 47
2020-10-12 09:00:00 9.4 12 Nordeste 32 Nordeste 0 -- -- 56
2020-10-12 08:00:00 9.7 12 Nordeste 41 Nordeste 0 -- -- 52
2020-10-12 07:00:00 10 14 Nordeste 37 Este 0 -- -- 52
2020-10-12 06:00:00 10.5 15 Nordeste 35 Nordeste 0 -- -- 50
2020-10-12 05:00:00 11 8 Nordeste 27 Nordeste 0 -- -- 49
2020-10-12 04:00:00 -- -- -- -- -- -- -- -- --
2020-10-12 03:00:00 11.8 9 Nordeste 24 Este 0 -- -- 47
2020-10-12 02:00:00 12.7 10 Nordeste 34 Nordeste 0 -- -- 44
2020-10-12 01:00:00 13.8 10 Nordeste 25 Este 0 -- -- 39
2020-10-12 00:00:00 13.8 7 Nordeste 17 Este 0 -- -- 36
2020-10-11 23:00:00 14.9 8 Nordeste 20 Nordeste 0 -- -- 32
2020-10-11 22:00:00 15.9 10 Nordeste 28 Este 0 -- -- 30
2020-10-11 21:00:00 -- -- -- -- -- -- -- -- --
2020-10-11 20:00:00 -- -- -- -- -- -- -- -- --
2020-10-11 19:00:00 19.6 3 Nordeste 24 Este 0 -- -- 27
2020-10-11 18:00:00 21.5 7 Nordeste 24 Este 0 -- -- 26
2020-10-11 17:00:00 22.2 13 Este 27 Este 0 -- -- 24
2020-10-11 16:00:00 22.8 7 Norte 26 Este 0 -- -- 20
2020-10-11 15:00:00 21.3 11 Nordeste 29 Este 0 -- -- 24
2020-10-11 14:00:00 20.6 13 Nordeste 31 Este 0 -- -- 32
2020-10-11 13:00:00 19.3 13 Nordeste 36 Este 0 -- -- 36
2020-10-11 12:00:00 18.2 17 Nordeste 32 Nordeste 0 -- -- 39
2020-10-11 11:00:00 17.9 12 Nordeste 31 Nordeste 0 -- -- 42
2020-10-11 10:00:00 16.7 11 Nordeste 30 Nordeste 0 -- -- 49
2020-10-11 09:00:00 14.4 9 Norte 24 Norte 0 -- -- 62
2020-10-11 08:00:00 14.7 6 Norte 22 Nordeste 0 -- -- 64
2020-10-11 07:00:00 15.1 7 Norte 30 Nordeste 0 -- -- 69
2020-10-11 06:00:00 15.7 10 Nordeste 31 Noroeste 0 -- -- 67
2020-10-11 05:00:00 16.1 6 Noroeste 22 Noroeste 0 -- -- 62
2020-10-11 04:00:00 16.8 7 Norte 19 Norte 0 -- -- 53
2020-10-11 03:00:00 18.2 8 Norte 20 Nordeste 0 -- -- 49
2020-10-11 02:00:00 19.1 7 Nordeste 22 Nordeste 0 -- -- 46
2020-10-11 01:00:00 19.2 6 Nordeste 18 Nordeste 0 -- -- 46
2020-10-11 00:00:00 18 5 Norte 13 Norte 0 -- -- 47
2020-10-10 23:00:00 18 2 Noroeste 7 Noroeste 0 -- -- 51
2020-10-10 22:00:00 19.6 3 Noroeste 8 Noroeste 0 -- -- 46
2020-10-10 21:00:00 19.6 5 Nordeste 9 Norte 0 -- -- 45
2020-10-10 20:00:00 21.8 5 Nordeste 8 Nordeste 0 -- -- 40
2020-10-10 19:00:00 27.1 3 Oeste 14 Noroeste 0 -- -- 32
2020-10-10 18:00:00 29.2 8 Oeste 17 Oeste 0 -- -- 27
2020-10-10 17:00:00 29.8 4 Oeste 20 Sudoeste 0 -- -- 27
2020-10-10 16:00:00 29.4 9 Sudoeste 18 Sudoeste 0 -- -- 29
2020-10-10 15:00:00 28.7 6 Noroeste 18 Oeste 0 -- -- 30
2020-10-10 14:00:00 27.9 5 Sur 15 Sur 0 -- -- 33
2020-10-10 13:00:00 26.3 5 Sudeste 11 Sudoeste 0 -- -- 33
2020-10-10 12:00:00 25.1 6 Sur 10 Sur 0 -- -- 38
2020-10-10 11:00:00 22.4 4 Sudeste 8 Sudeste 0 -- -- 42
2020-10-10 10:00:00 16.3 0 Calma 4 Este 0 -- -- 71
2020-10-10 09:00:00 11.8 0 Calma 3 Este 0 -- -- 80
2020-10-10 08:00:00 11.6 0 Calma 2 Nordeste 0 -- -- 78
2020-10-10 07:00:00 12.1 0 Calma 2 Nordeste 0 -- -- 77
2020-10-10 06:00:00 12.7 0 Calma 8 Este 0 -- -- 72
2020-10-10 05:00:00 13.4 0 Calma 4 Este 0 -- -- 67
2020-10-10 04:00:00 13.5 0 Calma 7 Nordeste 0 -- -- 68
2020-10-10 03:00:00 13.9 0 Calma 5 Nordeste 0 -- -- 67
2020-10-10 02:00:00 14.2 0 Calma 4 Sur 0 -- -- 64
2020-10-10 01:00:00 14.4 0 Calma 4 Nordeste 0 -- -- 65
2020-10-10 00:00:00 14.7 0 Calma 2 Este 0 -- -- 66
2020-10-09 23:00:00 15 0 Calma 2 Nordeste 0 -- -- 65
2020-10-09 22:00:00 16.2 0 Calma 3 Nordeste 0 -- -- 63
2020-10-09 21:00:00 18.4 0 Calma 5 Este 0 -- -- 54
2020-10-09 20:00:00 21.8 2 Nordeste 8 Oeste 0 -- -- 45
2020-10-09 19:00:00 27 3 Sudoeste 11 Sudoeste 0 -- -- 35
2020-10-09 18:00:00 29.1 5 Sur 13 Sudoeste 0 -- -- 27
2020-10-09 17:00:00 29.7 6 Sur 17 Sudoeste 0 -- -- 29
2020-10-09 16:00:00 28.7 3 Este 15 Sudeste 0 -- -- 28
2020-10-09 15:00:00 28.6 5 Sur 16 Sur 0 -- -- 30
2020-10-09 14:00:00 27.2 5 Este 10 Este 0 -- -- 32
2020-10-09 13:00:00 25.4 5 Sudeste 11 Sudeste 0 -- -- 34
2020-10-09 12:00:00 24.1 4 Sudeste 8 Sur 0 -- -- 42
2020-10-09 11:00:00 21.4 0 Calma 3 Sudoeste 0 -- -- 50
2020-10-09 10:00:00 15.5 0 Calma 3 Este 0 -- -- 76
2020-10-09 09:00:00 10.5 0 Calma 3 Nordeste 0 -- -- 86
2020-10-09 08:00:00 10.6 0 Calma 2 Nordeste 0 -- -- 82
2020-10-09 07:00:00 10.9 0 Calma 3 Nordeste 0 -- -- 80
2020-10-09 06:00:00 11 0 Calma 3 Nordeste 0 -- -- 76
2020-10-09 05:00:00 11.5 0 Calma 2 Este 0 -- -- 75
2020-10-09 04:00:00 11.9 0 Calma 2 Nordeste 0 -- -- 72
2020-10-09 03:00:00 12.4 0 Calma 4 Nordeste 0 -- -- 69
2020-10-09 02:00:00 13.1 3 Nordeste 5 Nordeste 0 -- -- 66
2020-10-09 01:00:00 13.1 2 Este 6 Este 0 -- -- 65
2020-10-09 00:00:00 13.8 0 Calma 3 Oeste 0 -- -- 65
2020-10-08 23:00:00 14.3 0 Calma 4 Este 0 -- -- 63
2020-10-08 22:00:00 15.6 0 Calma 5 Este 0 -- -- 63
2020-10-08 21:00:00 17 0 Calma 7 Nordeste 0 -- -- 58
2020-10-08 20:00:00 20.4 2 Nordeste 5 Nordeste 0 -- -- 50
2020-10-08 19:00:00 26 0 Calma 17 Sur 0 -- -- 36
2020-10-08 18:00:00 27.9 7 Sudoeste 16 Sudoeste -- -- -- 28
2020-10-08 17:00:00 28.7 7 Sudoeste 17 Sudoeste 0 -- -- 28
2020-10-08 16:00:00 29.2 5 Sudoeste 22 Sudoeste 0 -- -- 27
2020-10-08 15:00:00 28.4 6 Sudeste 18 Sur 0 -- -- 31
2020-10-08 14:00:00 27.7 6 Sur 14 Sudeste 0 -- -- 33
2020-10-08 13:00:00 26.2 7 Sur 14 Sur 0 -- -- 34
2020-10-08 12:00:00 25.1 5 Sudeste 12 Sur 0 -- -- 37
2020-10-08 11:00:00 21.9 0 Calma 4 Sur 0 -- -- 52
2020-10-08 10:00:00 15.4 0 Calma -- -- 0 -- -- 74
2020-10-08 09:00:00 10.9 0 Calma -- -- 0 -- -- 83
2020-10-08 08:00:00 10.9 0 Calma -- -- 0 -- -- 80
2020-10-08 07:00:00 11.4 0 Calma -- -- 0 -- -- 77
2020-10-08 06:00:00 11.9 0 Calma -- -- 0 -- -- 74
2020-10-08 05:00:00 12.2 0 Calma -- -- 0 -- -- 76
2020-10-08 04:00:00 12.7 0 Calma -- -- 0 -- -- 71
2020-10-08 03:00:00 12.9 0 Calma -- -- 0 -- -- 73
2020-10-08 02:00:00 13.1 0 Calma 5 Este 0 -- -- 70
2020-10-08 01:00:00 13.7 0 Calma 12 Noroeste 0 -- -- 69
2020-10-08 00:00:00 14.6 4 Norte 12 Norte 0 -- -- 66
2020-10-07 23:00:00 15.1 2 Este 8 Noroeste 0 -- -- 66
2020-10-07 22:00:00 17 0 Calma 10 Norte 0 -- -- 58
2020-10-07 21:00:00 18.3 0 Calma 4 Sudoeste 0 -- -- 59
2020-10-07 20:00:00 21.4 0 Calma 6 Nordeste 0 -- -- 50
2020-10-07 19:00:00 27.6 2 Oeste 10 Sudoeste 0 -- -- 37
2020-10-07 18:00:00 28.9 6 Sudoeste 16 Oeste 0 -- -- 31
2020-10-07 17:00:00 28.9 4 Sur 15 Oeste 0 -- -- 32
2020-10-07 16:00:00 28.8 8 Sudoeste 17 Sudoeste 0 -- -- 34
2020-10-07 15:00:00 27.5 5 Sur 12 Este 0 -- -- 36
2020-10-07 14:00:00 26.8 4 Sudoeste 14 Sudoeste 0 -- -- 37
2020-10-07 13:00:00 25.7 5 Sudeste 13 Sudeste 0 -- -- 43
2020-10-07 12:00:00 25.1 4 Sudeste 13 Este 0 -- -- 46
2020-10-07 11:00:00 23.1 7 Nordeste 14 Este 0 -- -- 51
2020-10-07 10:00:00 17.4 4 Norte 10 Noroeste 0 -- -- 79
2020-10-07 09:00:00 12.2 0 Calma 5 Este 0 -- -- 92
2020-10-07 08:00:00 11.7 0 Calma 6 Nordeste 0 -- -- 91
2020-10-07 07:00:00 11.7 0 Calma 5 Este 0 -- -- 90
2020-10-07 06:00:00 12.2 2 Nordeste 6 Nordeste 0 -- -- 90
2020-10-07 05:00:00 12.7 0 Calma 6 Noroeste 0 -- -- 88
2020-10-07 04:00:00 12.5 0 Calma 12 Norte 0 -- -- 89
2020-10-07 03:00:00 12.5 5 Nordeste 13 Norte 0 -- -- 88
2020-10-07 02:00:00 12.4 0 Calma 3 Nordeste 0 -- -- 87
2020-10-07 01:00:00 12.7 0 Calma 5 Este 0 -- -- 85
2020-10-07 00:00:00 13.8 0 Calma 5 Nordeste 0 -- -- 82
2020-10-06 23:00:00 15.5 0 Calma 7 Norte 0 -- -- 75
2020-10-06 22:00:00 15.2 0 Calma 2 Nordeste 0 -- -- 73
2020-10-06 21:00:00 18.1 2 Nordeste 8 Nordeste 0 -- -- 62
2020-10-06 20:00:00 20 5 Nordeste 9 Oeste 0 -- -- 56
2020-10-06 19:00:00 24.5 5 Sudoeste 16 Sudoeste 0 -- -- 46
2020-10-06 18:00:00 25.9 7 Sudoeste 15 Sudoeste 0 -- -- 43
2020-10-06 17:00:00 26.1 10 Sudoeste 18 Sudoeste 0 -- -- 43
2020-10-06 16:00:00 25.3 6 Sudoeste 17 Sur 0 -- -- 44
2020-10-06 15:00:00 24.3 7 Oeste 16 Sudoeste 0 -- -- 44
2020-10-06 14:00:00 23.1 4 Sudeste 16 Sudoeste 0 -- -- 46
2020-10-06 13:00:00 21.5 6 Sur 12 Sudeste 0 -- -- 51
2020-10-06 12:00:00 18.9 5 Sudeste 11 Sudeste 0 -- -- 52
2020-10-06 11:00:00 16.8 5 Sudeste 8 Sudeste 0 -- -- 60
2020-10-06 10:00:00 12.8 0 Calma 4 Nordeste 0 -- -- 82
2020-10-06 09:00:00 7.9 0 Calma 5 Nordeste 0 -- -- 91
2020-10-06 08:00:00 8 0 Calma 2 Sudoeste 0 -- -- 90
2020-10-06 07:00:00 8.4 0 Calma 5 Nordeste 0 -- -- 88
2020-10-06 06:00:00 8.9 0 Calma 17 Norte 0 -- -- 85
2020-10-06 05:00:00 8.3 3 Nordeste 5 Sudoeste 0 -- -- 86
2020-10-06 04:00:00 8.6 0 Calma 3 Nordeste 0 -- -- 84
2020-10-06 03:00:00 8.6 0 Calma 4 Este 0 -- -- 81
2020-10-06 02:00:00 8.5 0 Calma 4 Sudoeste 0 -- -- 80
2020-10-06 01:00:00 9.9 3 Norte 7 Nordeste 0 -- -- 73
2020-10-06 00:00:00 10.1 3 Noroeste 10 Noroeste 0 -- -- 72
2020-10-05 23:00:00 9.7 2 Norte 4 Norte 0 -- -- 73
2020-10-05 22:00:00 10.8 0 Calma 5 Norte 0 -- -- 71
2020-10-05 21:00:00 13 0 Calma 9 Norte 0 -- -- 61
2020-10-05 20:00:00 15 4 Norte 7 Sudoeste 0 -- -- 54
2020-10-05 19:00:00 18.7 7 Sudoeste 18 Oeste 0 -- -- 44
2020-10-05 18:00:00 19.6 6 Norte 20 Sudoeste 0 -- -- 43
2020-10-05 17:00:00 19.1 12 Oeste 23 Oeste 0 -- -- 45
2020-10-05 16:00:00 20 7 Sudoeste 21 Sudoeste 0 -- -- 45
2020-10-05 15:00:00 18.3 9 Sur 22 Sur 0 -- -- 49
2020-10-05 14:00:00 17.5 6 Sur 17 Oeste 0 -- -- 50
2020-10-05 13:00:00 17.1 9 Sudoeste 20 Sudoeste 0 -- -- 51
2020-10-05 12:00:00 15.6 4 Este 17 Oeste 0 -- -- 56
2020-10-05 11:00:00 13.5 8 Oeste 17 Noroeste 0 -- -- 65
2020-10-05 10:00:00 11.2 4 Noroeste 10 Oeste 0 -- -- 74
2020-10-05 09:00:00 6.6 4 Nordeste 7 Nordeste 0 -- -- 90
2020-10-05 08:00:00 5.5 0 Calma 5 Nordeste 0 -- -- 90
2020-10-05 07:00:00 6.2 3 Norte 6 Nordeste 0 -- -- 89
2020-10-05 06:00:00 6.7 0 Calma 4 Norte 0 -- -- 87
2020-10-05 05:00:00 7.7 0 Calma 4 Este 0 -- -- 84
2020-10-05 04:00:00 8.1 0 Calma 6 Norte 0 -- -- 83
2020-10-05 03:00:00 7.8 0 Calma 4 Noroeste 0 -- -- 88
2020-10-05 02:00:00 8.1 0 Calma 4 Este 0 -- -- 88
2020-10-05 01:00:00 8.5 2 Nordeste 4 Nordeste 0 -- -- 88
2020-10-05 00:00:00 10 0 Calma 5 Norte 0 -- -- 86
2020-10-04 23:00:00 10.4 0 Calma 3 Nordeste 0 -- -- 86
2020-10-04 22:00:00 11.3 0 Calma 8 Nordeste 0 -- -- 80
2020-10-04 21:00:00 12.5 4 Nordeste 22 Oeste 0 -- -- 76
2020-10-04 20:00:00 14.3 4 Oeste 17 Noroeste 0 -- -- 67
2020-10-04 19:00:00 16.7 9 Oeste 26 Noroeste 0 -- -- 58
2020-10-04 18:00:00 17 12 Oeste 31 Noroeste 0 -- -- 62
2020-10-04 17:00:00 18.1 7 Oeste 30 Sudoeste 0 -- -- 55
2020-10-04 16:00:00 17.2 8 Oeste 28 Oeste 0 -- -- 59
2020-10-04 15:00:00 16.3 10 Oeste 32 Sudoeste 0 -- -- 58
2020-10-04 14:00:00 16.9 9 Oeste 21 Sudoeste 0 -- -- 56
2020-10-04 13:00:00 15.3 10 Sudoeste 20 Sudoeste 0 -- -- 59
2020-10-04 12:00:00 14.4 6 Sudeste 14 Sudeste 0 -- -- 60
2020-10-04 11:00:00 12.4 5 Sudeste 9 Sur 0 -- -- 73
2020-10-04 10:00:00 9.4 0 Calma 4 Sudeste 0 -- -- 88
2020-10-04 09:00:00 4.5 2 Este 5 Nordeste 0 -- -- 94
2020-10-04 08:00:00 4.7 0 Calma 4 Nordeste 0 -- -- 93
2020-10-04 07:00:00 5 0 Calma 3 Este 0 -- -- 92
2020-10-04 06:00:00 5.5 0 Calma 5 Sur 0 -- -- 89
2020-10-04 05:00:00 5.9 0 Calma 4 Nordeste 0 -- -- 89
2020-10-04 04:00:00 6.7 0 Calma 5 Nordeste 0 -- -- 87
2020-10-04 03:00:00 8.3 0 Calma 6 Nordeste 0 -- -- 81
2020-10-04 02:00:00 8.3 4 Nordeste 7 Nordeste 0 -- -- 80
2020-10-04 01:00:00 8.5 2 Norte 6 Noroeste 0 -- -- 78
2020-10-04 00:00:00 8.8 0 Calma 5 Noroeste 0 -- -- 78
2020-10-03 23:00:00 8.7 0 Calma 5 Nordeste 0 -- -- 73
2020-10-03 22:00:00 8.3 0 Calma 3 Este 0 -- -- 74
2020-10-03 21:00:00 10.4 0 Calma 6 Oeste 0 -- -- 67
2020-10-03 20:00:00 12.9 0 Calma 19 Sudoeste 0 -- -- 55
2020-10-03 19:00:00 15.9 5 Sudoeste 23 Oeste 0 -- -- 39
2020-10-03 18:00:00 16.8 11 Sudoeste 33 Sudoeste 0 -- -- 40
2020-10-03 17:00:00 17.1 8 Oeste 33 Sudoeste 0 -- -- 44
2020-10-03 16:00:00 16.5 14 Sudoeste 28 Sudoeste 0 -- -- 46
2020-10-03 15:00:00 15.7 11 Sudoeste 29 Noroeste 0 -- -- 48
2020-10-03 14:00:00 14.7 16 Sudoeste 30 Sudoeste 0 -- -- 57
2020-10-03 13:00:00 13.6 7 Nordeste 22 Oeste 0 -- -- 63
2020-10-03 12:00:00 11.9 8 Noroeste 22 Norte 0 -- -- 65
2020-10-03 11:00:00 11.1 7 Oeste 17 Oeste 0 -- -- 72
2020-10-03 10:00:00 9.6 4 Nordeste 12 Noroeste 0 -- -- 79
2020-10-03 09:00:00 5.5 0 Calma 8 Este 0 -- -- 91
2020-10-03 08:00:00 5.9 3 Nordeste 10 Norte 0 -- -- 89
2020-10-03 07:00:00 5.9 3 Este 8 Nordeste 0 -- -- 89
2020-10-03 06:00:00 5.7 3 Este 9 Este 0 -- -- 89
2020-10-03 05:00:00 6.4 4 Este 17 Nordeste 0 -- -- 85
2020-10-03 04:00:00 6.8 9 Este 17 Este 0 -- -- 86
2020-10-03 03:00:00 6.7 5 Este 12 Nordeste 0 -- -- 88
2020-10-03 02:00:00 6.4 5 Nordeste 16 Noroeste 0 -- -- 90
2020-10-03 01:00:00 6.7 4 Nordeste 9 Noroeste 0 -- -- 89
2020-10-03 00:00:00 7.1 0 Calma 15 Oeste 0 -- -- 91
2020-10-02 23:00:00 7.3 3 Nordeste 10 Norte 0 -- -- 88
2020-10-02 22:00:00 8.1 3 Nordeste 14 Noroeste 0 -- -- 89
2020-10-02 21:00:00 9.9 3 Este 20 Oeste 0.2 -- -- 86
2020-10-02 20:00:00 10.7 4 Oeste 16 Sudoeste 4 -- -- 88
2020-10-02 19:00:00 11.3 4 Este 23 Noroeste 0.6 -- -- 84
2020-10-02 18:00:00 11.7 6 Este 29 Noroeste 1.6 -- -- 89
2020-10-02 17:00:00 13 13 Sudoeste 47 Oeste 0.6 -- -- 87
2020-10-02 16:00:00 13.6 19 Oeste 48 Oeste 2.8 -- -- 87
2020-10-02 15:00:00 14.8 11 Oeste 34 Norte 11 -- -- 89
2020-10-02 14:00:00 14.1 9 Sudeste 50 Este 2 -- -- 91
2020-10-02 13:00:00 13.3 15 Sudeste 41 Sudeste 0.4 -- -- 91
2020-10-02 12:00:00 12.3 12 Sur 29 Sudoeste 1 -- -- 92
2020-10-02 11:00:00 11.7 7 Sur 28 Sudoeste 1.6 -- -- 91
2020-10-02 10:00:00 12.2 16 Sudoeste 32 Sudoeste 0.6 -- -- 88
2020-10-02 09:00:00 12.5 7 Sur 33 Sur 0 -- -- 82
2020-10-02 08:00:00 12.6 10 Sudoeste 42 Oeste 0 -- -- 82
2020-10-02 07:00:00 12.5 12 Oeste 28 Sudoeste 0 -- -- 78
2020-10-02 06:00:00 12.5 6 Nordeste 23 Sudoeste 0 -- -- 76
2020-10-02 05:00:00 12.9 3 Norte 21 Oeste 0 -- -- 72
2020-10-02 04:00:00 13.5 7 Oeste 28 Oeste 0 -- -- 73
2020-10-02 03:00:00 14 8 Noroeste 28 Sudoeste 0 -- -- 71
2020-10-02 02:00:00 14.6 6 Oeste 31 Oeste 0 -- -- 69
2020-10-02 01:00:00 15.2 5 Oeste 25 Oeste 0 -- -- 68
2020-10-02 00:00:00 16 7 Noroeste 22 Oeste 0 -- -- 65
2020-10-01 23:00:00 16.8 4 Nordeste 17 Oeste 0 -- -- 62
2020-10-01 22:00:00 18 4 Oeste 24 Oeste 0 -- -- 58
2020-10-01 21:00:00 19 4 Oeste 17 Oeste 0 -- -- 55
2020-10-01 20:00:00 20.3 5 Noroeste 27 Noroeste 0 -- -- 52
2020-10-01 19:00:00 22.5 6 Sudoeste 28 Sudoeste 0 -- -- 47
2020-10-01 18:00:00 24.1 17 Sudoeste 39 Sudoeste 0 -- -- 39
2020-10-01 17:00:00 24.7 13 Oeste 31 Sudoeste 0 -- -- 37
2020-10-01 16:00:00 24.6 15 Sudoeste 30 Sudoeste 0 -- -- 37
2020-10-01 15:00:00 23.9 11 Oeste 28 Sudoeste 0 -- -- 35
2020-10-01 14:00:00 23 17 Sudoeste 28 Sudoeste 0 -- -- 38
2020-10-01 13:00:00 22.2 13 Sudoeste 22 Sudoeste 0 -- -- 40
2020-10-01 12:00:00 20.8 10 Sudoeste 18 Sudoeste 0 -- -- 42
2020-10-01 11:00:00 18.6 7 Sudeste 13 Sudeste 0 -- -- 57
2020-10-01 10:00:00 14.3 2 Este 6 Sudeste 0 -- -- 75
2020-10-01 09:00:00 8.9 0 Calma 5 Sudoeste 0 -- -- 87
2020-10-01 08:00:00 9.2 0 Calma 4 Nordeste 0 -- -- 85
2020-10-01 07:00:00 9.6 0 Calma 5 Nordeste 0 -- -- 84
2020-10-01 06:00:00 9.7 0 Calma 4 Sudoeste 0 -- -- 80
2020-10-01 05:00:00 10 0 Calma 5 Este 0 -- -- 76
2020-10-01 04:00:00 10.9 3 Nordeste 5 Este 0 -- -- 74
2020-10-01 03:00:00 11.6 0 Calma 5 Nordeste 0 -- -- 71
2020-10-01 02:00:00 11.9 0 Calma 5 Oeste 0 -- -- 71
2020-10-01 01:00:00 13.1 0 Calma 8 Nordeste 0 -- -- 68
2020-10-01 00:00:00 13.9 0 Calma 4 Oeste 0 -- -- 65